Time;durP1;ratioP1;P1;durP2;ratioP2;P2;SDS_P1;SDS_P2;PMS_P1;PMS_P2;Temp;Humidity;BMP_temperature;BMP_pressure;BME280_temperature;BME280_humidity;BME280_pressure;Samples;Min_cycle;Max_cycle;Signal;HPM_P1;HPM_P2
2023/10/07 00:03:05;;;;;;;4.28;2.45;;;;;;;;;;4997227;28;20472;-54
2023/10/07 00:05:35;;;;;;;5.40;2.80;;;;;;;;;;5013604;28;20041;-54
2023/10/07 00:08:00;;;;;;;;;;;;;;;;;;4999214;28;20057;-55
2023/10/07 00:10:29;;;;;;;6.72;2.85;;;;;;;;;;5000700;28;19959;-54
2023/10/07 00:12:57;;;;;;;7.65;3.17;;;;;;;;;;4999577;28;20144;-52
2023/10/07 00:15:24;;;;;;;6.07;2.75;;;;;;;;;;4991751;28;20034;-54
2023/10/07 00:17:50;;;;;;;5.20;2.38;;;;;;;;;;4998888;28;20048;-56
2023/10/07 00:20:20;;;;;;;5.82;2.78;;;;;;;;;;4999399;28;20068;-55
2023/10/07 00:22:48;;;;;;;4.75;2.92;;;;;;;;;;4999578;28;20482;-54
2023/10/07 00:25:19;;;;;;;5.13;2.83;;;;;;;;;;4998397;28;20041;-56
2023/10/07 00:27:44;;;;;;;3.85;2.60;;;;;;;;;;4998588;28;20034;-53
2023/10/07 00:30:13;;;;;;;5.60;2.90;;;;;;;;;;5014037;28;20375;-54
2023/10/07 00:32:38;;;;;;;4.05;2.70;;;;;;;;;;4998046;28;20144;-52
2023/10/07 00:35:06;;;;;;;6.20;2.63;;;;;;;;;;4998855;28;20057;-53
2023/10/07 00:37:33;;;;;;;5.93;3.03;;;;;;;;;;4998717;28;20034;-53
2023/10/07 00:40:13;;;;;;;5.55;2.70;;;;;;;;;;4996007;28;20083;-53
2023/10/07 00:42:44;;;;;;;4.43;2.65;;;;;;;;;;4989250;28;20076;-54
2023/10/07 00:45:15;;;;;;;5.05;2.78;;;;;;;;;;5000284;28;20042;-55
2023/10/07 00:47:41;;;;;;;5.15;2.67;;;;;;;;;;4997107;28;20538;-52
2023/10/07 00:50:09;;;;;;;5.80;2.80;;;;;;;;;;4995191;28;20060;-54
2023/10/07 00:52:41;;;;;;;5.50;2.75;;;;;;;;;;4997630;28;20033;-55
2023/10/07 01:00:30;;;;;;;4.70;2.70;;;;;;;;;;4998575;28;20095;-55
2023/10/07 01:03:13;;;;;;;5.40;2.67;;;;;;;;;;4995871;28;20116;-52
2023/10/07 01:05:44;;;;;;;5.65;2.65;;;;;;;;;;4997688;28;20046;-54
2023/10/07 01:08:09;;;;;;;4.53;2.67;;;;;;;;;;4996591;28;20156;-55
2023/10/07 01:10:40;;;;;;;5.05;2.85;;;;;;;;;;4998544;28;20126;-54
2023/10/07 01:13:24;;;;;;;5.20;2.55;;;;;;;;;;4998829;28;20033;-53
2023/10/07 01:15:50;;;;;;;4.20;2.75;;;;;;;;;;4997472;28;20502;-55
2023/10/07 01:18:19;;;;;;;4.45;2.58;;;;;;;;;;4991370;28;21141;-55
2023/10/07 01:23:33;;;;;;;4.90;2.58;;;;;;;;;;4997745;28;20091;-52
2023/10/07 01:25:59;;;;;;;4.53;2.65;;;;;;;;;;4997805;28;20044;-53
2023/10/07 01:28:26;;;;;;;3.90;2.45;;;;;;;;;;4997713;28;20144;-53
2023/10/07 01:33:39;;;;;;;6.30;2.63;;;;;;;;;;4998716;28;20196;-54
2023/10/07 01:38:33;;;;;;;5.43;2.85;;;;;;;;;;5000757;28;20042;-53
2023/10/07 01:41:06;;;;;;;5.80;2.75;;;;;;;;;;4996141;28;20045;-53
2023/10/07 01:43:39;;;;;;;4.97;2.30;;;;;;;;;;4998627;28;20371;-53
2023/10/07 01:46:07;;;;;;;5.55;3.00;;;;;;;;;;4989831;28;20041;-53
2023/10/07 01:48:35;;;;;;;6.72;2.80;;;;;;;;;;4992102;28;20056;-53
2023/10/07 01:51:04;;;;;;;5.07;2.70;;;;;;;;;;4977570;28;20034;-53
2023/10/07 01:53:32;;;;;;;7.00;2.92;;;;;;;;;;4997554;28;20041;-53
2023/10/07 01:55:57;;;;;;;7.32;2.80;;;;;;;;;;5002426;28;20462;-52
2023/10/07 01:58:25;;;;;;;4.88;3.00;;;;;;;;;;5001365;28;20038;-52
2023/10/07 02:00:57;;;;;;;5.72;3.10;;;;;;;;;;5002292;28;20092;-54
2023/10/07 02:03:23;;;;;;;5.60;3.10;;;;;;;;;;5000467;28;20569;-53
2023/10/07 02:05:49;;;;;;;5.30;3.08;;;;;;;;;;5010381;28;20065;-53
2023/10/07 02:08:17;;;;;;;5.20;2.80;;;;;;;;;;5010525;28;20135;-52
2023/10/07 02:10:45;;;;;;;5.80;2.85;;;;;;;;;;5001785;28;20030;-53
2023/10/07 02:13:14;;;;;;;4.72;2.88;;;;;;;;;;4999696;28;20202;-53
2023/10/07 02:15:42;;;;;;;5.53;2.60;;;;;;;;;;5001196;28;20069;-54
2023/10/07 02:18:12;;;;;;;5.03;2.67;;;;;;;;;;5001551;28;20160;-53
2023/10/07 02:20:40;;;;;;;5.03;2.65;;;;;;;;;;5002320;28;20061;-54
2023/10/07 02:23:11;;;;;;;4.57;2.85;;;;;;;;;;5002399;28;20061;-58
2023/10/07 02:25:38;;;;;;;8.55;3.33;;;;;;;;;;5001260;28;20695;-54
2023/10/07 02:28:05;;;;;;;5.13;2.92;;;;;;;;;;5001147;28;20069;-54
2023/10/07 02:30:38;;;;;;;4.80;2.85;;;;;;;;;;5001757;28;20030;-53
2023/10/07 02:33:07;;;;;;;5.57;2.90;;;;;;;;;;4994431;28;20031;-53
2023/10/07 02:35:33;;;;;;;6.50;3.20;;;;;;;;;;4995759;28;20026;-54
2023/10/07 02:38:03;;;;;;;5.43;2.97;;;;;;;;;;4995595;28;20088;-54
2023/10/07 02:40:48;;;;;;;6.68;2.83;;;;;;;;;;5002633;28;20281;-54
2023/10/07 02:43:15;;;;;;;5.47;3.20;;;;;;;;;;5002511;28;20513;-53
2023/10/07 02:45:42;;;;;;;6.75;3.00;;;;;;;;;;5016010;28;20033;-55
2023/10/07 02:48:10;;;;;;;5.35;3.03;;;;;;;;;;4998356;28;20034;-55
2023/10/07 02:50:40;;;;;;;4.88;2.53;;;;;;;;;;4999664;28;20042;-53
2023/10/07 02:53:12;;;;;;;6.03;2.80;;;;;;;;;;5002232;28;20533;-55
2023/10/07 02:55:47;;;;;;;5.53;3.20;;;;;;;;;;5002025;28;20060;-54
2023/10/07 02:58:18;;;;;;;6.03;3.25;;;;;;;;;;5001027;28;20034;-54
2023/10/07 03:00:49;;;;;;;6.95;3.42;;;;;;;;;;5001499;28;20054;-54
2023/10/07 03:05:44;;;;;;;7.28;3.58;;;;;;;;;;5000251;28;20034;-53
2023/10/07 03:08:19;;;;;;;5.50;3.17;;;;;;;;;;5002569;28;20096;-54
2023/10/07 03:11:03;;;;;;;5.45;3.13;;;;;;;;;;5000468;28;20518;-54
2023/10/07 03:13:28;;;;;;;6.60;2.92;;;;;;;;;;5015241;28;20069;-52
2023/10/07 03:24:26;;;;;;;5.20;3.08;;;;;;;;;;4998717;28;20056;-53
2023/10/07 03:26:54;;;;;;;6.60;2.92;;;;;;;;;;5000236;28;20046;-53
2023/10/07 03:29:31;;;;;;;5.93;3.17;;;;;;;;;;5014872;28;20203;-54
2023/10/07 03:31:59;;;;;;;6.43;3.20;;;;;;;;;;5001469;28;20057;-54
2023/10/07 03:34:25;;;;;;;8.50;3.47;;;;;;;;;;4998268;28;20096;-53
2023/10/07 03:40:17;;;;;;;7.45;2.90;;;;;;;;;;4989212;28;20037;-54
2023/10/07 03:42:41;;;;;;;8.00;3.45;;;;;;;;;;4999294;28;20498;-56
2023/10/07 03:45:10;;;;;;;6.53;3.10;;;;;;;;;;4999020;28;20034;-53
2023/10/07 03:47:37;;;;;;;8.27;3.40;;;;;;;;;;4997450;28;20028;-53
2023/10/07 03:50:20;;;;;;;6.28;3.35;;;;;;;;;;4992936;28;20505;-55
2023/10/07 03:52:50;;;;;;;6.53;3.35;;;;;;;;;;5000276;28;20541;-55
2023/10/07 03:55:15;;;;;;;7.57;3.63;;;;;;;;;;4999079;28;20057;-56
2023/10/07 03:57:41;;;;;;;4.65;3.15;;;;;;;;;;4998504;28;20512;-53
2023/10/07 04:00:11;;;;;;;6.78;3.38;;;;;;;;;;4998586;28;20054;-56
2023/10/07 04:02:36;;;;;;;6.03;3.03;;;;;;;;;;4967616;28;20081;-56
2023/10/07 04:05:14;;;;;;;6.70;3.13;;;;;;;;;;4982181;28;20068;-55
2023/10/07 04:07:43;;;;;;;6.15;3.20;;;;;;;;;;4999564;28;20069;-55
2023/10/07 04:12:39;;;;;;;6.75;3.20;;;;;;;;;;5001299;28;20045;-54
2023/10/07 04:15:09;;;;;;;6.25;2.83;;;;;;;;;;5003426;28;20042;-56
2023/10/07 04:17:37;;;;;;;4.60;2.85;;;;;;;;;;4998991;28;20050;-55
2023/10/07 04:20:18;;;;;;;4.70;2.97;;;;;;;;;;4999283;28;20060;-53
2023/10/07 04:22:44;;;;;;;5.97;3.22;;;;;;;;;;4998961;28;20062;-54
2023/10/07 04:25:17;;;;;;;6.38;3.20;;;;;;;;;;5009807;28;20030;-54
2023/10/07 04:27:42;;;;;;;5.03;3.25;;;;;;;;;;4998914;28;20539;-53
2023/10/07 04:30:10;;;;;;;7.38;2.95;;;;;;;;;;4999470;28;20049;-54
2023/10/07 04:32:42;;;;;;;5.30;3.20;;;;;;;;;;5015156;28;20038;-54
2023/10/07 04:35:16;;;;;;;5.53;3.08;;;;;;;;;;4999494;28;20108;-53
2023/10/07 04:37:51;;;;;;;4.95;3.28;;;;;;;;;;4998453;28;20543;-52
2023/10/07 04:43:25;;;;;;;6.00;3.40;;;;;;;;;;4999876;28;20088;-55
2023/10/07 04:45:37;;;;;;;6.10;2.90;;;;;;;;;;4993588;28;20689;-54
2023/10/07 04:48:24;;;;;;;5.72;3.22;;;;;;;;;;4997163;28;20037;-53
2023/10/07 04:51:03;;;;;;;5.97;2.70;;;;;;;;;;4995739;28;20079;-53
2023/10/07 04:53:37;;;;;;;6.22;2.60;;;;;;;;;;4984978;28;20034;-54
2023/10/07 04:56:03;;;;;;;5.47;2.88;;;;;;;;;;4972388;28;20037;-54
2023/10/07 04:58:28;;;;;;;7.50;3.30;;;;;;;;;;4981638;28;20513;-53
2023/10/07 05:01:04;;;;;;;6.05;3.17;;;;;;;;;;4991943;28;20523;-56
2023/10/07 05:03:31;;;;;;;5.25;2.67;;;;;;;;;;4978662;28;20056;-56
2023/10/07 05:05:59;;;;;;;5.25;2.70;;;;;;;;;;4979518;28;20038;-57
2023/10/07 05:08:27;;;;;;;7.45;2.60;;;;;;;;;;4974613;28;20026;-56
2023/10/07 05:10:53;;;;;;;7.43;3.00;;;;;;;;;;4974922;28;20042;-53
2023/10/07 05:13:18;;;;;;;5.90;2.95;;;;;;;;;;4982008;28;20049;-54
2023/10/07 05:15:44;;;;;;;6.25;2.58;;;;;;;;;;4979907;28;22781;-54
2023/10/07 05:18:12;;;;;;;5.30;3.10;;;;;;;;;;4975763;28;20038;-54
2023/10/07 05:20:38;;;;;;;5.38;2.92;;;;;;;;;;4972484;28;20856;-54
2023/10/07 05:23:04;;;;;;;5.72;2.65;;;;;;;;;;4976187;28;20581;-55
2023/10/07 05:25:35;;;;;;;5.68;2.70;;;;;;;;;;4971552;28;20041;-54
2023/10/07 05:28:10;;;;;;;5.15;2.50;;;;;;;;;;4971921;28;20057;-55
2023/10/07 05:30:36;;;;;;;6.07;2.95;;;;;;;;;;4974816;28;20038;-55
2023/10/07 05:33:08;;;;;;;5.28;2.47;;;;;;;;;;4971807;28;20042;-54
2023/10/07 05:35:37;;;;;;;4.65;2.40;;;;;;;;;;4972302;28;20529;-55
2023/10/07 05:38:04;;;;;;;4.10;2.47;;;;;;;;;;4974574;28;20085;-55
2023/10/07 05:40:29;;;;;;;5.05;2.80;;;;;;;;;;4967613;28;20038;-54
2023/10/07 05:42:55;;;;;;;5.35;2.90;;;;;;;;;;4968961;28;20695;-53
2023/10/07 05:45:20;;;;;;;5.05;2.45;;;;;;;;;;4969380;28;20422;-55
2023/10/07 05:47:45;;;;;;;5.03;2.73;;;;;;;;;;4965869;28;20426;-54
2023/10/07 05:50:12;;;;;;;4.22;2.55;;;;;;;;;;4968103;28;20300;-55
2023/10/07 05:52:39;;;;;;;5.63;2.88;;;;;;;;;;4967596;28;20529;-55
2023/10/07 05:55:06;;;;;;;3.90;2.40;;;;;;;;;;4964176;28;20508;-55
2023/10/07 05:57:33;;;;;;;4.43;2.60;;;;;;;;;;4965954;28;20049;-53
2023/10/07 05:59:58;;;;;;;4.88;3.00;;;;;;;;;;4966417;28;20056;-53
2023/10/07 06:02:24;;;;;;;5.20;2.80;;;;;;;;;;4965832;28;20786;-54
2023/10/07 06:04:49;;;;;;;5.85;2.97;;;;;;;;;;4968501;28;20148;-52
2023/10/07 06:07:14;;;;;;;5.40;2.80;;;;;;;;;;4965529;28;20030;-53
2023/10/07 06:09:44;;;;;;;5.57;3.00;;;;;;;;;;4963704;28;20042;-53
2023/10/07 06:12:11;;;;;;;4.77;2.77;;;;;;;;;;4967700;28;20050;-55
2023/10/07 06:14:37;;;;;;;6.60;2.83;;;;;;;;;;4968653;28;20077;-55
2023/10/07 06:17:06;;;;;;;6.40;2.80;;;;;;;;;;4966218;28;20121;-55
2023/10/07 06:19:33;;;;;;;6.03;3.00;;;;;;;;;;4965819;28;20332;-54
2023/10/07 06:21:59;;;;;;;3.67;2.30;;;;;;;;;;4969352;28;20302;-53
2023/10/07 06:24:26;;;;;;;4.22;2.70;;;;;;;;;;4966721;28;20022;-55
2023/10/07 06:26:53;;;;;;;5.60;3.17;;;;;;;;;;4966059;28;20034;-55
2023/10/07 06:29:19;;;;;;;5.53;2.70;;;;;;;;;;4968294;28;20026;-53
2023/10/07 06:31:48;;;;;;;5.10;2.47;;;;;;;;;;4967510;28;20816;-55
2023/10/07 06:34:14;;;;;;;5.95;2.90;;;;;;;;;;4969787;28;20026;-54
2023/10/07 06:36:42;;;;;;;5.43;2.92;;;;;;;;;;4966381;28;20028;-54
2023/10/07 06:39:08;;;;;;;5.70;2.72;;;;;;;;;;4969297;28;20096;-53
2023/10/07 06:41:34;;;;;;;4.18;2.58;;;;;;;;;;4970564;28;20113;-53
2023/10/07 06:43:59;;;;;;;4.65;2.60;;;;;;;;;;4968270;28;20030;-54
2023/10/07 06:46:31;;;;;;;5.70;2.95;;;;;;;;;;4968270;28;20018;-53
2023/10/07 06:48:56;;;;;;;4.75;2.70;;;;;;;;;;4973313;28;20042;-53
2023/10/07 06:51:23;;;;;;;6.63;2.73;;;;;;;;;;4983898;28;20091;-54
2023/10/07 06:53:49;;;;;;;5.53;2.78;;;;;;;;;;4980512;28;20394;-55
2023/10/07 06:56:21;;;;;;;5.78;2.80;;;;;;;;;;4984717;28;20147;-53
2023/10/07 06:58:53;;;;;;;9.23;3.10;;;;;;;;;;4990811;28;20666;-53
2023/10/07 07:01:35;;;;;;;5.53;2.80;;;;;;;;;;4987286;28;20489;-54
2023/10/07 07:04:09;;;;;;;6.43;2.78;;;;;;;;;;4986883;28;20101;-53
2023/10/07 07:06:42;;;;;;;16.95;2.88;;;;;;;;;;4978548;28;20040;-55
2023/10/07 07:09:41;;;;;;;6.05;3.03;;;;;;;;;;4983318;28;20138;-53
2023/10/07 07:11:53;;;;;;;6.65;3.20;;;;;;;;;;4980132;28;20461;-53
2023/10/07 07:14:18;;;;;;;4.85;2.63;;;;;;;;;;4982319;28;20038;-53
2023/10/07 07:16:44;;;;;;;5.07;2.80;;;;;;;;;;4975448;28;20042;-55
2023/10/07 07:19:11;;;;;;;6.20;2.67;;;;;;;;;;4975342;28;20540;-52
2023/10/07 07:21:38;;;;;;;5.07;2.47;;;;;;;;;;4980038;28;20446;-54
2023/10/07 07:24:03;;;;;;;4.75;2.65;;;;;;;;;;4975954;28;20168;-54
2023/10/07 07:26:30;;;;;;;4.88;2.78;;;;;;;;;;4976779;28;20578;-52
2023/10/07 07:28:57;;;;;;;4.45;2.45;;;;;;;;;;4977108;28;20042;-54
2023/10/07 07:31:26;;;;;;;5.38;2.67;;;;;;;;;;4970717;28;20042;-53
2023/10/07 07:33:52;;;;;;;8.05;4.18;;;;;;;;;;4974424;28;20042;-55
2023/10/07 07:39:06;;;;;;;8.77;4.25;;;;;;;;;;4977948;28;20723;-53
2023/10/07 07:41:34;;;;;;;7.05;3.55;;;;;;;;;;4977634;28;20077;-55
2023/10/07 07:44:00;;;;;;;6.30;2.95;;;;;;;;;;4973971;28;20668;-52
2023/10/07 07:46:51;;;;;;;5.35;3.10;;;;;;;;;;4972616;28;20724;-54
2023/10/07 07:49:17;;;;;;;7.47;3.25;;;;;;;;;;4970999;28;20051;-54
2023/10/07 07:51:43;;;;;;;7.05;3.70;;;;;;;;;;4972046;28;20126;-54
2023/10/07 07:54:09;;;;;;;6.38;3.22;;;;;;;;;;4975192;28;20100;-54
2023/10/07 07:56:35;;;;;;;6.40;2.92;;;;;;;;;;4972089;28;20038;-54
2023/10/07 07:59:02;;;;;;;6.07;3.58;;;;;;;;;;4970257;28;20831;-53
2023/10/07 08:01:31;;;;;;;9.45;3.10;;;;;;;;;;4968774;28;20137;-53
2023/10/07 08:03:58;;;;;;;6.57;3.15;;;;;;;;;;4967723;28;20041;-55
2023/10/07 08:06:25;;;;;;;6.38;3.47;;;;;;;;;;4968459;28;20038;-56
2023/10/07 08:08:53;;;;;;;5.72;3.10;;;;;;;;;;4968857;28;20088;-53
2023/10/07 08:11:18;;;;;;;7.28;3.03;;;;;;;;;;4970971;28;20092;-53
2023/10/07 08:13:48;;;;;;;4.72;3.00;;;;;;;;;;4966999;28;20430;-55
2023/10/07 08:16:19;;;;;;;4.78;3.03;;;;;;;;;;4970085;28;20084;-54
2023/10/07 08:18:48;;;;;;;7.00;3.30;;;;;;;;;;4968941;28;20030;-53
2023/10/07 08:21:13;;;;;;;7.00;3.03;;;;;;;;;;4968932;28;20073;-57
2023/10/07 08:23:44;;;;;;;5.07;3.00;;;;;;;;;;4972297;28;20034;-56
2023/10/07 08:26:13;;;;;;;5.90;3.00;;;;;;;;;;4970450;28;20050;-54
2023/10/07 08:28:46;;;;;;;5.43;3.30;;;;;;;;;;4971677;28;20520;-54
2023/10/07 08:31:18;;;;;;;5.60;3.20;;;;;;;;;;4970013;28;20037;-53
2023/10/07 08:33:48;;;;;;;5.63;2.83;;;;;;;;;;4971078;28;20137;-54
2023/10/07 08:36:14;;;;;;;6.72;3.20;;;;;;;;;;4971289;28;20105;-52
2023/10/07 08:38:50;;;;;;;5.80;2.83;;;;;;;;;;4972156;28;20038;-53
2023/10/07 08:41:18;;;;;;;6.60;3.20;;;;;;;;;;4969623;28;21764;-54
2023/10/07 08:43:44;;;;;;;6.55;3.03;;;;;;;;;;4970540;28;20057;-55
2023/10/07 08:46:16;;;;;;;6.63;3.22;;;;;;;;;;4972334;28;21186;-53
2023/10/07 08:48:50;;;;;;;5.82;3.13;;;;;;;;;;4967793;28;20208;-54
2023/10/07 08:51:21;;;;;;;6.82;3.30;;;;;;;;;;4969844;28;20478;-53
2023/10/07 08:53:47;;;;;;;5.95;3.22;;;;;;;;;;4968752;28;20093;-53
2023/10/07 08:56:13;;;;;;;8.85;2.90;;;;;;;;;;4971387;28;20097;-53
2023/10/07 08:58:41;;;;;;;6.03;2.85;;;;;;;;;;4969883;28;20031;-53
2023/10/07 09:01:07;;;;;;;10.10;4.30;;;;;;;;;;4967838;28;20068;-54
2023/10/07 09:03:39;;;;;;;7.60;4.75;;;;;;;;;;4967728;28;20038;-56
2023/10/07 09:06:06;;;;;;;11.18;5.10;;;;;;;;;;4967215;28;20062;-55
2023/10/07 09:08:33;;;;;;;9.82;5.55;;;;;;;;;;4968001;28;20039;-55
2023/10/07 09:10:58;;;;;;;8.02;5.32;;;;;;;;;;4969508;28;20034;-54
2023/10/07 09:13:27;;;;;;;10.27;5.10;;;;;;;;;;4968435;28;20096;-53
2023/10/07 09:15:53;;;;;;;8.18;5.00;;;;;;;;;;4967575;28;20657;-55
2023/10/07 09:18:18;;;;;;;8.65;5.05;;;;;;;;;;4965745;28;20041;-56
2023/10/07 09:20:45;;;;;;;9.02;4.78;;;;;;;;;;4966149;28;20038;-55
2023/10/07 09:23:19;;;;;;;8.70;5.13;;;;;;;;;;4950229;28;20042;-55
2023/10/07 09:25:55;;;;;;;11.25;5.40;;;;;;;;;;4969191;28;20494;-55
2023/10/07 09:28:31;;;;;;;11.15;5.90;;;;;;;;;;4969641;28;20027;-55
2023/10/07 09:30:58;;;;;;;9.20;4.78;;;;;;;;;;4968702;28;20120;-54
2023/10/07 09:33:26;;;;;;;10.85;5.05;;;;;;;;;;4968435;28;20121;-56
2023/10/07 09:38:44;;;;;;;8.85;5.20;;;;;;;;;;4972701;28;20783;-60
2023/10/07 09:41:12;;;;;;;14.73;5.40;;;;;;;;;;4970350;28;20093;-55
2023/10/07 09:43:42;;;;;;;7.57;4.57;;;;;;;;;;4967913;28;20047;-55
2023/10/07 09:46:08;;;;;;;8.93;4.45;;;;;;;;;;4967559;28;20045;-54
2023/10/07 09:48:36;;;;;;;8.20;4.63;;;;;;;;;;4966539;28;20038;-55
2023/10/07 09:51:14;;;;;;;6.93;3.83;;;;;;;;;;4968052;28;20442;-55
2023/10/07 09:53:51;;;;;;;9.95;4.13;;;;;;;;;;4965044;28;20507;-53
2023/10/07 09:56:43;;;;;;;7.32;3.97;;;;;;;;;;4966834;28;20092;-54
2023/10/07 09:59:18;;;;;;;8.07;4.47;;;;;;;;;;4962811;28;20077;-57
2023/10/07 10:01:54;;;;;;;8.18;4.97;;;;;;;;;;4963810;28;20072;-53
2023/10/07 10:04:43;;;;;;;10.07;4.20;;;;;;;;;;4965638;28;20292;-53
2023/10/07 10:07:28;;;;;;;10.45;4.78;;;;;;;;;;4966965;28;20046;-53
2023/10/07 10:10:07;;;;;;;9.05;4.70;;;;;;;;;;4966131;28;20034;-54
2023/10/07 10:12:52;;;;;;;7.63;4.10;;;;;;;;;;4967110;28;20031;-55
2023/10/07 10:17:53;;;;;;;7.78;4.55;;;;;;;;;;4971478;28;20060;-54
2023/10/07 10:20:20;;;;;;;7.28;4.07;;;;;;;;;;4970810;28;20046;-53
2023/10/07 10:22:49;;;;;;;7.85;4.30;;;;;;;;;;4969195;28;20045;-53
2023/10/07 10:25:16;;;;;;;8.23;4.53;;;;;;;;;;4971111;28;20188;-54
2023/10/07 10:27:44;;;;;;;9.13;4.10;;;;;;;;;;4972450;28;20133;-54
2023/10/07 10:30:21;;;;;;;8.90;4.32;;;;;;;;;;4972477;28;20030;-52
2023/10/07 10:32:48;;;;;;;9.32;3.70;;;;;;;;;;4969749;28;20077;-53
2023/10/07 10:35:14;;;;;;;10.88;4.00;;;;;;;;;;4970385;28;20073;-55
2023/10/07 10:37:39;;;;;;;6.57;3.72;;;;;;;;;;4967431;28;20134;-55
2023/10/07 10:40:12;;;;;;;7.83;3.83;;;;;;;;;;4969502;28;20050;-55
2023/10/07 10:42:41;;;;;;;9.82;4.60;;;;;;;;;;4970415;28;20306;-54
2023/10/07 10:45:10;;;;;;;6.95;3.72;;;;;;;;;;4968911;28;20030;-53
2023/10/07 10:47:39;;;;;;;10.43;3.72;;;;;;;;;;4967909;28;20786;-54
2023/10/07 10:50:07;;;;;;;10.32;4.30;;;;;;;;;;4968802;28;20038;-54
2023/10/07 10:52:32;;;;;;;10.77;3.80;;;;;;;;;;4970347;28;20112;-54
2023/10/07 10:55:00;;;;;;;8.77;4.00;;;;;;;;;;4968839;28;20039;-54
2023/10/07 10:57:25;;;;;;;7.35;4.25;;;;;;;;;;4970378;28;20539;-56
2023/10/07 10:59:50;;;;;;;7.57;3.70;;;;;;;;;;4972900;28;20816;-55
2023/10/07 11:02:22;;;;;;;6.57;3.80;;;;;;;;;;4978548;28;20604;-54
2023/10/07 11:04:49;;;;;;;10.65;4.03;;;;;;;;;;4980512;28;20316;-52
2023/10/07 11:07:14;;;;;;;10.10;4.15;;;;;;;;;;4987109;28;20422;-54
2023/10/07 11:09:41;;;;;;;6.50;3.57;;;;;;;;;;4985612;28;20029;-53
2023/10/07 11:12:09;;;;;;;7.10;4.18;;;;;;;;;;4977259;28;20289;-53
2023/10/07 11:14:38;;;;;;;7.57;3.72;;;;;;;;;;4989089;28;20410;-54
2023/10/07 11:17:03;;;;;;;8.18;3.88;;;;;;;;;;4986019;28;20023;-53
2023/10/07 11:19:30;;;;;;;9.05;3.75;;;;;;;;;;4979572;28;20034;-52
2023/10/07 11:21:56;;;;;;;7.00;4.00;;;;;;;;;;4975570;28;20447;-54
2023/10/07 11:24:24;;;;;;;8.63;4.22;;;;;;;;;;4985830;28;20046;-55
2023/10/07 11:26:49;;;;;;;8.07;4.03;;;;;;;;;;4978620;28;20037;-54
2023/10/07 11:29:15;;;;;;;8.88;3.97;;;;;;;;;;4978836;28;20039;-53
2023/10/07 11:31:41;;;;;;;8.82;3.78;;;;;;;;;;4982878;28;20061;-55
2023/10/07 11:34:06;;;;;;;8.80;3.97;;;;;;;;;;4981523;28;20057;-55
2023/10/07 11:36:45;;;;;;;8.45;3.75;;;;;;;;;;4983284;28;20530;-55
2023/10/07 11:39:13;;;;;;;6.18;3.28;;;;;;;;;;4986658;28;20037;-55
2023/10/07 11:41:38;;;;;;;7.90;3.35;;;;;;;;;;4989595;28;20264;-56
2023/10/07 11:44:04;;;;;;;7.13;3.50;;;;;;;;;;4985415;28;20387;-54
2023/10/07 11:46:29;;;;;;;9.70;4.15;;;;;;;;;;4974670;28;20340;-53
2023/10/07 11:48:56;;;;;;;7.18;3.53;;;;;;;;;;4965753;28;20038;-54
2023/10/07 11:51:23;;;;;;;9.32;3.65;;;;;;;;;;4978694;28;20042;-54
2023/10/07 11:53:50;;;;;;;7.40;3.45;;;;;;;;;;4981816;28;20042;-54
2023/10/07 11:56:15;;;;;;;6.03;3.30;;;;;;;;;;4983919;28;20561;-55
2023/10/07 11:58:41;;;;;;;6.80;3.38;;;;;;;;;;4972653;28;20034;-55
2023/10/07 12:01:07;;;;;;;9.25;4.50;;;;;;;;;;4970353;28;20058;-55
2023/10/07 12:03:34;;;;;;;6.50;3.47;;;;;;;;;;4972016;28;20042;-53
2023/10/07 12:05:59;;;;;;;8.52;3.38;;;;;;;;;;4972451;28;20044;-53
2023/10/07 12:08:25;;;;;;;8.05;3.60;;;;;;;;;;4970108;28;20452;-52
2023/10/07 12:10:51;;;;;;;7.53;3.70;;;;;;;;;;4971115;28;20536;-54
2023/10/07 12:13:17;;;;;;;9.45;3.92;;;;;;;;;;4972252;28;20038;-53
2023/10/07 12:15:44;;;;;;;8.32;3.60;;;;;;;;;;4972606;28;20036;-54
2023/10/07 12:18:12;;;;;;;6.60;3.33;;;;;;;;;;4968903;28;20099;-53
2023/10/07 12:20:38;;;;;;;5.95;3.17;;;;;;;;;;4970634;28;20061;-54
2023/10/07 12:23:03;;;;;;;8.48;3.40;;;;;;;;;;4972307;28;20188;-53
2023/10/07 12:25:30;;;;;;;7.18;3.50;;;;;;;;;;4970422;28;20125;-54
2023/10/07 12:27:56;;;;;;;4.97;3.10;;;;;;;;;;4968764;28;20030;-54
2023/10/07 12:30:22;;;;;;;5.90;3.30;;;;;;;;;;4971447;28;20041;-53
2023/10/07 12:32:48;;;;;;;6.55;3.30;;;;;;;;;;4977619;28;20544;-52
2023/10/07 12:35:13;;;;;;;6.47;3.13;;;;;;;;;;4971535;28;21226;-54
2023/10/07 12:37:46;;;;;;;7.22;3.35;;;;;;;;;;4989721;28;20438;-54
2023/10/07 12:40:12;;;;;;;7.05;3.55;;;;;;;;;;4998005;28;20041;-53
2023/10/07 12:42:39;;;;;;;5.95;3.17;;;;;;;;;;4998189;28;20378;-55
2023/10/07 12:45:05;;;;;;;7.13;3.28;;;;;;;;;;4997653;28;20123;-53
2023/10/07 12:47:30;;;;;;;7.05;3.15;;;;;;;;;;4996668;28;20575;-54
2023/10/07 12:49:55;;;;;;;6.45;3.08;;;;;;;;;;4997243;28;20478;-53
2023/10/07 12:52:23;;;;;;;4.63;2.83;;;;;;;;;;4999642;28;20666;-53
2023/10/07 12:54:49;;;;;;;5.72;3.05;;;;;;;;;;4998095;28;20478;-53
2023/10/07 12:57:15;;;;;;;7.82;3.13;;;;;;;;;;4991423;22;20068;-57
2023/10/07 12:59:42;;;;;;;6.50;3.35;;;;;;;;;;4989013;28;20120;-57
2023/10/07 13:02:09;;;;;;;8.23;3.40;;;;;;;;;;4994666;28;20423;-57
2023/10/07 13:04:35;;;;;;;5.25;2.92;;;;;;;;;;4988723;28;20029;-55
2023/10/07 13:07:05;;;;;;;5.15;3.03;;;;;;;;;;4993422;28;20524;-57
2023/10/07 13:09:33;;;;;;;7.50;2.90;;;;;;;;;;4988918;28;20033;-57
2023/10/07 13:11:58;;;;;;;5.20;2.88;;;;;;;;;;4996523;28;20037;-56
2023/10/07 13:14:26;;;;;;;5.65;3.03;;;;;;;;;;4978358;28;20044;-56
2023/10/07 13:16:56;;;;;;;5.05;2.47;;;;;;;;;;4996194;28;20064;-56
2023/10/07 13:19:26;;;;;;;4.25;2.50;;;;;;;;;;4985154;28;20049;-55
2023/10/07 13:21:51;;;;;;;5.63;2.50;;;;;;;;;;4995372;28;20098;-56
2023/10/07 13:24:16;;;;;;;5.90;2.55;;;;;;;;;;4996387;28;20413;-56
2023/10/07 13:26:43;;;;;;;5.33;2.60;;;;;;;;;;4996656;28;20042;-55
2023/10/07 13:29:10;;;;;;;7.28;2.83;;;;;;;;;;5011875;28;20747;-55
2023/10/07 13:31:36;;;;;;;5.07;2.75;;;;;;;;;;4997011;28;20393;-55
2023/10/07 13:34:04;;;;;;;5.63;2.47;;;;;;;;;;4996028;28;20034;-56
2023/10/07 13:36:29;;;;;;;5.25;2.47;;;;;;;;;;4996232;28;20034;-56
2023/10/07 13:38:57;;;;;;;5.75;2.75;;;;;;;;;;4994763;28;20041;-55
2023/10/07 13:41:23;;;;;;;4.25;2.42;;;;;;;;;;4996090;28;20468;-58
2023/10/07 13:43:48;;;;;;;4.93;2.63;;;;;;;;;;4996271;28;20030;-55
2023/10/07 13:46:14;;;;;;;5.40;2.38;;;;;;;;;;4993373;28;20092;-58
2023/10/07 13:48:42;;;;;;;3.78;2.42;;;;;;;;;;4983114;28;20041;-55
2023/10/07 13:51:07;;;;;;;8.82;2.92;;;;;;;;;;4996425;28;20069;-56
2023/10/07 13:54:21;;;;;;;5.25;2.42;;;;;;;;;;4994816;28;20377;-56
2023/10/07 13:56:47;;;;;;;4.82;2.22;;;;;;;;;;4991961;28;20046;-57
2023/10/07 13:59:13;;;;;;;4.97;2.10;;;;;;;;;;4995091;28;20034;-56
2023/10/07 14:01:39;;;;;;;5.65;2.42;;;;;;;;;;4979978;28;20104;-56
2023/10/07 14:04:05;;;;;;;6.15;2.85;;;;;;;;;;4974319;28;20493;-56
2023/10/07 14:06:33;;;;;;;7.28;2.50;;;;;;;;;;4993039;28;20096;-57
2023/10/07 14:08:58;;;;;;;5.05;2.20;;;;;;;;;;4995980;28;20038;-55
2023/10/07 14:11:24;;;;;;;7.70;2.38;;;;;;;;;;5012363;28;20036;-57
2023/10/07 14:13:49;;;;;;;6.40;2.50;;;;;;;;;;4996658;28;20057;-57
2023/10/07 14:16:17;;;;;;;4.68;2.47;;;;;;;;;;4995590;28;20272;-57
2023/10/07 14:18:44;;;;;;;6.32;2.30;;;;;;;;;;4995866;28;20042;-57
2023/10/07 14:21:09;;;;;;;4.63;2.35;;;;;;;;;;4996323;28;20049;-57
2023/10/07 14:23:35;;;;;;;5.40;2.08;;;;;;;;;;4997241;28;20399;-57
2023/10/07 14:26:09;;;;;;;5.45;2.47;;;;;;;;;;4995483;28;20096;-57
2023/10/07 14:28:34;;;;;;;4.32;2.10;;;;;;;;;;4996682;28;20038;-57
2023/10/07 14:31:05;;;;;;;4.55;2.50;;;;;;;;;;4994643;28;20046;-57
2023/10/07 14:33:32;;;;;;;5.38;2.33;;;;;;;;;;5013173;28;20480;-58
2023/10/07 14:35:57;;;;;;;5.65;2.70;;;;;;;;;;4995467;28;20088;-58
2023/10/07 14:38:22;;;;;;;5.73;2.60;;;;;;;;;;4994944;28;20034;-57
2023/10/07 14:40:49;;;;;;;5.40;2.78;;;;;;;;;;4994905;28;20833;-57
2023/10/07 14:43:15;;;;;;;5.07;2.33;;;;;;;;;;4997849;28;20022;-56
2023/10/07 14:45:46;;;;;;;4.72;2.40;;;;;;;;;;4995669;28;20490;-57
2023/10/07 14:48:12;;;;;;;3.92;2.40;;;;;;;;;;4993453;28;20552;-57
2023/10/07 14:50:40;;;;;;;4.40;2.30;;;;;;;;;;4996670;28;20026;-57
2023/10/07 14:53:05;;;;;;;4.57;2.45;;;;;;;;;;4997243;28;20277;-57
2023/10/07 14:55:32;;;;;;;4.35;2.10;;;;;;;;;;4995993;28;20128;-57
2023/10/07 14:58:00;;;;;;;5.80;2.17;;;;;;;;;;4996536;28;20132;-57
2023/10/07 15:00:25;;;;;;;18.85;4.15;;;;;;;;;;4997684;28;20030;-57
2023/10/07 15:02:51;;;;;;;7.07;2.85;;;;;;;;;;4994257;28;20060;-57
2023/10/07 15:05:17;;;;;;;6.18;2.63;;;;;;;;;;4992442;28;20052;-57
2023/10/07 15:07:42;;;;;;;7.20;2.60;;;;;;;;;;4996075;28;20565;-57
2023/10/07 15:10:08;;;;;;;6.72;2.85;;;;;;;;;;4999340;28;20046;-56
2023/10/07 15:12:33;;;;;;;4.32;2.28;;;;;;;;;;4998558;28;20049;-57
2023/10/07 15:14:59;;;;;;;5.72;2.97;;;;;;;;;;4997459;28;20038;-56
2023/10/07 15:17:24;;;;;;;5.10;2.30;;;;;;;;;;4998606;28;20030;-57
2023/10/07 15:19:50;;;;;;;5.05;2.65;;;;;;;;;;4999190;28;20036;-56
2023/10/07 15:22:15;;;;;;;6.55;2.75;;;;;;;;;;5000792;28;20320;-56
2023/10/07 15:24:42;;;;;;;5.72;2.60;;;;;;;;;;4999584;28;20034;-57
2023/10/07 15:27:07;;;;;;;5.07;2.65;;;;;;;;;;4997165;28;20449;-58
2023/10/07 15:29:33;;;;;;;7.37;2.50;;;;;;;;;;5014258;28;20136;-56
2023/10/07 15:31:59;;;;;;;7.53;2.80;;;;;;;;;;5000350;28;20367;-56
2023/10/07 15:34:24;;;;;;;5.70;2.80;;;;;;;;;;4999206;28;20113;-56